sensor_id;sensor_type;location;lat;lon;timestamp;pressure;altitude;pressure_sealevel;temperature;humidity
8039;BME280;4062;49.844;8.120;2023-02-13T00:01:54;101371.78;;;14.11;53.58
8039;BME280;4062;49.844;8.120;2023-02-13T00:03:55;101369.13;;;14.11;53.66
8039;BME280;4062;49.844;8.120;2023-02-13T00:05:56;101365.59;;;14.12;53.64
8039;BME280;4062;49.844;8.120;2023-02-13T00:07:56;101368.25;;;14.12;53.73
8039;BME280;4062;49.844;8.120;2023-02-13T00:09:57;101367.38;;;14.13;53.69
8039;BME280;4062;49.844;8.120;2023-02-13T00:11:58;101361.19;;;14.12;53.59
8039;BME280;4062;49.844;8.120;2023-02-13T00:13:59;101356.72;;;14.13;53.52
8039;BME280;4062;49.844;8.120;2023-02-13T00:16:03;101352.31;;;14.12;53.54
8039;BME280;4062;49.844;8.120;2023-02-13T00:18:04;101359.38;;;14.13;53.65
8039;BME280;4062;49.844;8.120;2023-02-13T00:20:05;101355.84;;;14.12;53.56
8039;BME280;4062;49.844;8.120;2023-02-13T00:22:06;101352.31;;;14.13;53.61
8039;BME280;4062;49.844;8.120;2023-02-13T00:24:07;101350.53;;;14.12;53.64
8039;BME280;4062;49.844;8.120;2023-02-13T00:26:11;101353.19;;;14.14;53.65
8039;BME280;4062;49.844;8.120;2023-02-13T00:28:17;101352.31;;;14.13;53.63
8039;BME280;4062;49.844;8.120;2023-02-13T00:30:19;101344.34;;;14.13;53.68
8039;BME280;4062;49.844;8.120;2023-02-13T00:32:20;101353.19;;;14.14;53.59
8039;BME280;4062;49.844;8.120;2023-02-13T00:34:21;101344.34;;;14.13;53.58
8039;BME280;4062;49.844;8.120;2023-02-13T00:36:23;101341.66;;;14.12;53.54
8039;BME280;4062;49.844;8.120;2023-02-13T00:38:25;101339.03;;;14.13;53.69
8039;BME280;4062;49.844;8.120;2023-02-13T00:40:26;101347.88;;;14.12;53.68
8039;BME280;4062;49.844;8.120;2023-02-13T00:42:27;101339.03;;;14.13;53.81
8039;BME280;4062;49.844;8.120;2023-02-13T00:44:28;101340.78;;;14.13;53.57
8039;BME280;4062;49.844;8.120;2023-02-13T00:46:28;101338.13;;;14.13;53.52
8039;BME280;4062;49.844;8.120;2023-02-13T00:48:32;101339.91;;;14.12;53.72
8039;BME280;4062;49.844;8.120;2023-02-13T00:50:33;101341.69;;;14.13;53.38
8039;BME280;4062;49.844;8.120;2023-02-13T00:52:34;101342.53;;;14.14;53.76
8039;BME280;4062;49.844;8.120;2023-02-13T00:54:35;101341.69;;;14.13;53.51
8039;BME280;4062;49.844;8.120;2023-02-13T00:56:36;101348.75;;;14.13;53.71
8039;BME280;4062;49.844;8.120;2023-02-13T00:58:37;101347.00;;;14.12;53.52
8039;BME280;4062;49.844;8.120;2023-02-13T01:00:38;101340.78;;;14.13;53.59
8039;BME280;4062;49.844;8.120;2023-02-13T01:02:39;101352.31;;;14.12;53.72
8039;BME280;4062;49.844;8.120;2023-02-13T01:04:40;101349.66;;;14.12;53.72
8039;BME280;4062;49.844;8.120;2023-02-13T01:06:41;101347.00;;;14.12;53.62
8039;BME280;4062;49.844;8.120;2023-02-13T01:08:42;101351.44;;;14.11;53.71
8039;BME280;4062;49.844;8.120;2023-02-13T01:10:45;101347.88;;;14.11;53.81
8039;BME280;4062;49.844;8.120;2023-02-13T01:12:47;101347.00;;;14.10;53.74
8039;BME280;4062;49.844;8.120;2023-02-13T01:14:47;101347.88;;;14.11;53.64
8039;BME280;4062;49.844;8.120;2023-02-13T01:16:48;101340.81;;;14.11;53.81
8039;BME280;4062;49.844;8.120;2023-02-13T01:18:49;101350.53;;;14.11;53.79
8039;BME280;4062;49.844;8.120;2023-02-13T01:21:06;101351.44;;;14.11;53.71
8039;BME280;4062;49.844;8.120;2023-02-13T01:23:07;101350.53;;;14.11;53.60
8039;BME280;4062;49.844;8.120;2023-02-13T01:25:08;101350.56;;;14.09;54.12
8039;BME280;4062;49.844;8.120;2023-02-13T01:27:09;101352.31;;;14.10;53.80
8039;BME280;4062;49.844;8.120;2023-02-13T01:29:13;101355.84;;;14.11;53.60
8039;BME280;4062;49.844;8.120;2023-02-13T01:31:14;101354.97;;;14.10;53.76
8039;BME280;4062;49.844;8.120;2023-02-13T01:33:15;101357.63;;;14.10;53.59
8039;BME280;4062;49.844;8.120;2023-02-13T01:35:17;101356.75;;;14.10;53.81
8039;BME280;4062;49.844;8.120;2023-02-13T01:37:20;101358.53;;;14.09;53.60
8039;BME280;4062;49.844;8.120;2023-02-13T01:39:21;101357.66;;;14.09;53.80
8039;BME280;4062;49.844;8.120;2023-02-13T01:41:23;101349.69;;;14.09;53.51
8039;BME280;4062;49.844;8.120;2023-02-13T01:45:53;101355.00;;;14.09;53.67
8039;BME280;4062;49.844;8.120;2023-02-13T01:48:04;101352.34;;;14.09;53.55
8039;BME280;4062;49.844;8.120;2023-02-13T01:52:19;101343.47;;;14.08;53.56
8039;BME280;4062;49.844;8.120;2023-02-13T01:54:27;101350.56;;;14.07;53.79
8039;BME280;4062;49.844;8.120;2023-02-13T01:56:37;101342.59;;;14.07;53.60
8039;BME280;4062;49.844;8.120;2023-02-13T01:58:41;101339.94;;;14.07;53.74
8039;BME280;4062;49.844;8.120;2023-02-13T02:00:44;101341.72;;;14.09;53.74
8039;BME280;4062;49.844;8.120;2023-02-13T02:02:57;101334.63;;;14.07;53.71
8039;BME280;4062;49.844;8.120;2023-02-13T02:05:02;101329.31;;;14.07;53.83
8039;BME280;4062;49.844;8.120;2023-02-13T02:07:09;101339.03;;;14.07;53.81
8039;BME280;4062;49.844;8.120;2023-02-13T02:09:18;101327.53;;;14.06;53.69
8039;BME280;4062;49.844;8.120;2023-02-13T02:12:04;101339.03;;;14.07;53.79
8039;BME280;4062;49.844;8.120;2023-02-13T02:14:09;101338.19;;;14.06;53.63
8039;BME280;4062;49.844;8.120;2023-02-13T02:16:10;101338.19;;;14.06;53.73
8039;BME280;4062;49.844;8.120;2023-02-13T02:18:20;101338.19;;;14.06;53.70
8039;BME280;4062;49.844;8.120;2023-02-13T02:20:49;101333.72;;;14.07;53.76
8039;BME280;4062;49.844;8.120;2023-02-13T02:23:28;101341.72;;;14.05;53.74
8039;BME280;4062;49.844;8.120;2023-02-13T02:29:00;101331.97;;;14.06;53.75
8039;BME280;4062;49.844;8.120;2023-02-13T02:31:51;101321.34;;;14.04;53.75
8039;BME280;4062;49.844;8.120;2023-02-13T02:37:04;101328.44;;;14.05;53.66
8039;BME280;4062;49.844;8.120;2023-02-13T02:41:38;101334.63;;;14.04;53.82
8039;BME280;4062;49.844;8.120;2023-02-13T02:44:07;101329.31;;;14.04;53.81
8039;BME280;4062;49.844;8.120;2023-02-13T02:48:32;101326.66;;;14.04;53.62
8039;BME280;4062;49.844;8.120;2023-02-13T02:51:12;101330.19;;;14.05;53.63
8039;BME280;4062;49.844;8.120;2023-02-13T02:55:41;101333.78;;;14.04;53.77
8039;BME280;4062;49.844;8.120;2023-02-13T03:00:45;101333.75;;;14.02;53.67
8039;BME280;4062;49.844;8.120;2023-02-13T03:03:17;101332.88;;;14.03;53.70
8039;BME280;4062;49.844;8.120;2023-02-13T03:05:43;101337.31;;;14.03;53.91
8039;BME280;4062;49.844;8.120;2023-02-13T03:08:03;101339.97;;;14.03;53.77
8039;BME280;4062;49.844;8.120;2023-02-13T03:10:11;101334.66;;;14.03;53.97
8039;BME280;4062;49.844;8.120;2023-02-13T03:13:00;101334.66;;;14.01;53.77
8039;BME280;4062;49.844;8.120;2023-02-13T03:15:38;101331.09;;;14.02;53.76
8039;BME280;4062;49.844;8.120;2023-02-13T03:18:01;101337.31;;;14.01;53.65
8039;BME280;4062;49.844;8.120;2023-02-13T03:23:19;101330.25;;;14.02;53.67
8039;BME280;4062;49.844;8.120;2023-02-13T03:25:33;101332.00;;;14.01;53.79
8039;BME280;4062;49.844;8.120;2023-02-13T03:27:54;101332.00;;;14.01;53.78
8039;BME280;4062;49.844;8.120;2023-02-13T03:32:53;101332.88;;;14.00;53.74
8039;BME280;4062;49.844;8.120;2023-02-13T03:37:30;101332.88;;;14.00;53.64
8039;BME280;4062;49.844;8.120;2023-02-13T03:42:11;101327.56;;;14.00;53.88
8039;BME280;4062;49.844;8.120;2023-02-13T03:46:42;101328.50;;;13.99;53.72
8039;BME280;4062;49.844;8.120;2023-02-13T03:48:46;101337.34;;;14.00;53.94
8039;BME280;4062;49.844;8.120;2023-02-13T03:51:08;101335.56;;;13.99;53.60
8039;BME280;4062;49.844;8.120;2023-02-13T03:53:12;101333.81;;;13.99;53.75
8039;BME280;4062;49.844;8.120;2023-02-13T03:55:24;101333.81;;;13.99;53.71
8039;BME280;4062;49.844;8.120;2023-02-13T03:57:48;101339.13;;;13.99;53.75
8039;BME280;4062;49.844;8.120;2023-02-13T04:00:15;101333.78;;;13.98;53.76
8039;BME280;4062;49.844;8.120;2023-02-13T04:02:23;101340.00;;;14.00;53.73
8039;BME280;4062;49.844;8.120;2023-02-13T04:04:53;101336.47;;;13.99;53.82
8039;BME280;4062;49.844;8.120;2023-02-13T04:07:04;101342.66;;;13.98;53.54
8039;BME280;4062;49.844;8.120;2023-02-13T04:09:06;101341.78;;;13.99;53.89
8039;BME280;4062;49.844;8.120;2023-02-13T04:13:35;101339.13;;;13.98;53.75
8039;BME280;4062;49.844;8.120;2023-02-13T04:15:52;101336.47;;;13.99;53.84
8039;BME280;4062;49.844;8.120;2023-02-13T04:18:09;101335.59;;;13.97;53.54
8039;BME280;4062;49.844;8.120;2023-02-13T04:20:12;101338.25;;;13.97;53.81
8039;BME280;4062;49.844;8.120;2023-02-13T04:22:13;101332.94;;;13.97;53.87
8039;BME280;4062;49.844;8.120;2023-02-13T04:24:14;101342.66;;;13.97;53.80
8039;BME280;4062;49.844;8.120;2023-02-13T04:26:21;101334.69;;;13.97;53.76
8039;BME280;4062;49.844;8.120;2023-02-13T04:28:22;101343.53;;;13.96;53.80
8039;BME280;4062;49.844;8.120;2023-02-13T04:30:23;101340.91;;;13.97;53.83
8039;BME280;4062;49.844;8.120;2023-02-13T04:32:24;101346.19;;;13.96;53.87
8039;BME280;4062;49.844;8.120;2023-02-13T04:34:25;101333.81;;;13.96;53.89
8039;BME280;4062;49.844;8.120;2023-02-13T04:36:26;101337.34;;;13.97;53.79
8039;BME280;4062;49.844;8.120;2023-02-13T04:38:27;101334.69;;;13.97;53.77
8039;BME280;4062;49.844;8.120;2023-02-13T04:40:28;101337.34;;;13.97;53.71
8039;BME280;4062;49.844;8.120;2023-02-13T04:42:28;101335.59;;;13.94;53.74
8039;BME280;4062;49.844;8.120;2023-02-13T04:44:29;101344.44;;;13.96;53.68
8039;BME280;4062;49.844;8.120;2023-02-13T04:46:30;101335.56;;;13.96;53.67
8039;BME280;4062;49.844;8.120;2023-02-13T04:48:31;101340.88;;;13.96;53.95
8039;BME280;4062;49.844;8.120;2023-02-13T04:50:32;101341.78;;;13.96;53.79
8039;BME280;4062;49.844;8.120;2023-02-13T04:52:33;101333.84;;;13.95;53.85
8039;BME280;4062;49.844;8.120;2023-02-13T04:54:34;101337.38;;;13.94;53.82
8039;BME280;4062;49.844;8.120;2023-02-13T04:56:34;101332.94;;;13.94;53.87
8039;BME280;4062;49.844;8.120;2023-02-13T04:58:35;101332.94;;;13.94;53.72
8039;BME280;4062;49.844;8.120;2023-02-13T05:00:36;101332.94;;;13.94;53.92
8039;BME280;4062;49.844;8.120;2023-02-13T05:02:37;101333.81;;;13.93;53.90
8039;BME280;4062;49.844;8.120;2023-02-13T05:04:38;101332.06;;;13.94;53.76
8039;BME280;4062;49.844;8.120;2023-02-13T05:06:39;101338.25;;;13.94;53.87
8039;BME280;4062;49.844;8.120;2023-02-13T05:08:40;101342.69;;;13.94;53.97
8039;BME280;4062;49.844;8.120;2023-02-13T05:10:41;101342.69;;;13.94;53.79
8039;BME280;4062;49.844;8.120;2023-02-13T05:12:41;101336.47;;;13.93;53.86
8039;BME280;4062;49.844;8.120;2023-02-13T05:14:42;101344.47;;;13.93;53.36
8039;BME280;4062;49.844;8.120;2023-02-13T05:16:43;101344.47;;;13.93;53.78
8039;BME280;4062;49.844;8.120;2023-02-13T05:18:44;101341.81;;;13.93;53.96
8039;BME280;4062;49.844;8.120;2023-02-13T05:20:45;101341.81;;;13.93;53.97
8039;BME280;4062;49.844;8.120;2023-02-13T05:23:13;101336.47;;;13.93;53.77
8039;BME280;4062;49.844;8.120;2023-02-13T05:25:23;101344.47;;;13.93;53.89
8039;BME280;4062;49.844;8.120;2023-02-13T05:27:24;101340.03;;;13.92;53.94
8039;BME280;4062;49.844;8.120;2023-02-13T05:29:25;101340.94;;;13.93;53.88
8039;BME280;4062;49.844;8.120;2023-02-13T05:31:26;101340.94;;;13.93;53.60
8039;BME280;4062;49.844;8.120;2023-02-13T05:33:26;101344.47;;;13.91;53.77
8039;BME280;4062;49.844;8.120;2023-02-13T05:35:27;101343.56;;;13.91;53.91
8039;BME280;4062;49.844;8.120;2023-02-13T05:37:28;101340.91;;;13.91;53.93
8039;BME280;4062;49.844;8.120;2023-02-13T05:39:29;101341.81;;;13.91;53.91
8039;BME280;4062;49.844;8.120;2023-02-13T05:41:30;101338.25;;;13.91;53.73
8039;BME280;4062;49.844;8.120;2023-02-13T05:43:31;101342.72;;;13.90;53.78
8039;BME280;4062;49.844;8.120;2023-02-13T05:45:32;101336.53;;;13.90;53.77
8039;BME280;4062;49.844;8.120;2023-02-13T05:47:33;101339.19;;;13.90;53.86
8039;BME280;4062;49.844;8.120;2023-02-13T05:49:33;101339.19;;;13.90;53.89
8039;BME280;4062;49.844;8.120;2023-02-13T05:51:34;101339.19;;;13.90;53.88
8039;BME280;4062;49.844;8.120;2023-02-13T05:53:35;101335.63;;;13.89;53.87
8039;BME280;4062;49.844;8.120;2023-02-13T05:55:38;101343.59;;;13.89;53.96
8039;BME280;4062;49.844;8.120;2023-02-13T05:57:38;101342.72;;;13.89;53.85
8039;BME280;4062;49.844;8.120;2023-02-13T05:59:39;101337.41;;;13.89;53.96
8039;BME280;4062;49.844;8.120;2023-02-13T06:01:40;101338.31;;;13.88;53.85
8039;BME280;4062;49.844;8.120;2023-02-13T06:03:41;101336.50;;;13.88;54.01
8039;BME280;4062;49.844;8.120;2023-02-13T06:05:42;101333.84;;;13.88;53.99
8039;BME280;4062;49.844;8.120;2023-02-13T06:07:43;101340.06;;;13.89;53.99
8039;BME280;4062;49.844;8.120;2023-02-13T06:09:44;101340.94;;;13.89;53.80
8039;BME280;4062;49.844;8.120;2023-02-13T06:11:44;101338.28;;;13.93;53.70
8039;BME280;4062;49.844;8.120;2023-02-13T06:13:45;101336.50;;;13.95;53.64
8039;BME280;4062;49.844;8.120;2023-02-13T06:15:46;101347.97;;;13.98;53.80
8039;BME280;4062;49.844;8.120;2023-02-13T06:17:47;101345.28;;;14.01;53.85
8039;BME280;4062;49.844;8.120;2023-02-13T06:19:48;101344.38;;;14.05;53.86
8039;BME280;4062;49.844;8.120;2023-02-13T06:21:49;101344.38;;;14.07;53.79
8039;BME280;4062;49.844;8.120;2023-02-13T06:23:50;101348.75;;;14.10;53.92
8039;BME280;4062;49.844;8.120;2023-02-13T06:25:51;101343.44;;;14.13;53.71
8039;BME280;4062;49.844;8.120;2023-02-13T06:27:55;101339.88;;;14.15;53.76
8039;BME280;4062;49.844;8.120;2023-02-13T06:29:58;101338.97;;;14.18;53.73
8039;BME280;4062;49.844;8.120;2023-02-13T06:31:59;101339.84;;;14.20;53.72
8039;BME280;4062;49.844;8.120;2023-02-13T06:34:00;101334.50;;;14.23;53.70
8039;BME280;4062;49.844;8.120;2023-02-13T06:36:01;101339.81;;;14.26;53.73
8039;BME280;4062;49.844;8.120;2023-02-13T06:38:02;101340.66;;;14.28;53.66
8039;BME280;4062;49.844;8.120;2023-02-13T06:40:04;101348.59;;;14.31;53.65
8039;BME280;4062;49.844;8.120;2023-02-13T06:42:05;101344.16;;;14.33;53.63
8039;BME280;4062;49.844;8.120;2023-02-13T06:44:06;101338.81;;;14.36;53.36
8039;BME280;4062;49.844;8.120;2023-02-13T06:46:07;101345.88;;;14.37;53.65
8039;BME280;4062;49.844;8.120;2023-02-13T06:48:09;101344.09;;;14.39;53.59
8039;BME280;4062;49.844;8.120;2023-02-13T06:50:11;101346.75;;;14.39;53.45
8039;BME280;4062;49.844;8.120;2023-02-13T06:52:12;101349.41;;;14.39;53.65
8039;BME280;4062;49.844;8.120;2023-02-13T06:54:13;101341.41;;;14.41;53.50
8039;BME280;4062;49.844;8.120;2023-02-13T06:56:14;101340.56;;;14.41;53.60
8039;BME280;4062;49.844;8.120;2023-02-13T06:58:15;101341.41;;;14.41;53.41
8039;BME280;4062;49.844;8.120;2023-02-13T07:00:17;101341.41;;;14.41;53.37
8039;BME280;4062;49.844;8.120;2023-02-13T07:02:18;101343.22;;;14.41;53.64
8039;BME280;4062;49.844;8.120;2023-02-13T07:04:19;101346.75;;;14.39;53.53
8039;BME280;4062;49.844;8.120;2023-02-13T07:06:20;101357.41;;;14.39;53.52
8039;BME280;4062;49.844;8.120;2023-02-13T07:08:21;101350.31;;;14.40;53.57
8039;BME280;4062;49.844;8.120;2023-02-13T07:10:22;101353.88;;;14.39;53.67
8039;BME280;4062;49.844;8.120;2023-02-13T07:12:23;101349.44;;;14.38;53.89
8039;BME280;4062;49.844;8.120;2023-02-13T07:14:24;101350.31;;;14.38;53.55
8039;BME280;4062;49.844;8.120;2023-02-13T07:16:25;101356.53;;;14.37;53.64
8039;BME280;4062;49.844;8.120;2023-02-13T07:18:26;101350.34;;;14.37;53.66
8039;BME280;4062;49.844;8.120;2023-02-13T07:20:27;101354.75;;;14.36;53.59
8039;BME280;4062;49.844;8.120;2023-02-13T07:22:30;101353.88;;;14.36;53.52
8039;BME280;4062;49.844;8.120;2023-02-13T07:24:32;101354.78;;;14.35;53.46
8039;BME280;4062;49.844;8.120;2023-02-13T07:26:35;101364.53;;;14.34;53.64
8039;BME280;4062;49.844;8.120;2023-02-13T07:28:36;101358.34;;;14.34;53.71
8039;BME280;4062;49.844;8.120;2023-02-13T07:30:36;101354.81;;;14.33;53.52
8039;BME280;4062;49.844;8.120;2023-02-13T07:32:37;101358.34;;;14.34;53.54
8039;BME280;4062;49.844;8.120;2023-02-13T07:34:38;101354.81;;;14.33;53.67
8039;BME280;4062;49.844;8.120;2023-02-13T07:36:39;101366.31;;;14.34;53.62
8039;BME280;4062;49.844;8.120;2023-02-13T07:38:40;101362.78;;;14.33;53.41
8039;BME280;4062;49.844;8.120;2023-02-13T07:40:41;101364.53;;;14.33;53.44
8039;BME280;4062;49.844;8.120;2023-02-13T07:42:42;101366.34;;;14.31;53.47
8039;BME280;4062;49.844;8.120;2023-02-13T07:44:42;101362.81;;;14.29;53.40
8039;BME280;4062;49.844;8.120;2023-02-13T07:46:43;101368.16;;;14.27;53.22
8039;BME280;4062;49.844;8.120;2023-02-13T07:48:44;101364.59;;;14.27;53.25
8039;BME280;4062;49.844;8.120;2023-02-13T07:50:45;101366.38;;;14.26;53.30
8039;BME280;4062;49.844;8.120;2023-02-13T07:52:58;101370.81;;;14.24;53.00
8039;BME280;4062;49.844;8.120;2023-02-13T07:54:59;101363.72;;;14.25;53.38
8039;BME280;4062;49.844;8.120;2023-02-13T07:57:00;101366.41;;;14.23;53.34
8039;BME280;4062;49.844;8.120;2023-02-13T07:59:01;101369.94;;;14.22;53.23
8039;BME280;4062;49.844;8.120;2023-02-13T08:01:10;101357.56;;;14.21;53.47
8039;BME280;4062;49.844;8.120;2023-02-13T08:03:12;101365.53;;;14.21;53.22
8039;BME280;4062;49.844;8.120;2023-02-13T08:05:13;101365.53;;;14.19;53.31
8039;BME280;4062;49.844;8.120;2023-02-13T08:07:16;101363.75;;;14.20;53.40
8039;BME280;4062;49.844;8.120;2023-02-13T08:09:19;101359.34;;;14.19;53.37
8039;BME280;4062;49.844;8.120;2023-02-13T08:11:39;101361.13;;;14.18;53.62
8039;BME280;4062;49.844;8.120;2023-02-13T08:13:55;101360.25;;;14.16;53.39
8039;BME280;4062;49.844;8.120;2023-02-13T08:15:56;101360.25;;;14.16;53.48
8039;BME280;4062;49.844;8.120;2023-02-13T08:17:57;101362.03;;;14.16;53.39
8039;BME280;4062;49.844;8.120;2023-02-13T08:19:57;101370.00;;;14.17;53.36
8039;BME280;4062;49.844;8.120;2023-02-13T08:21:58;101362.91;;;14.15;53.56
8039;BME280;4062;49.844;8.120;2023-02-13T08:23:59;101362.03;;;14.14;53.35
8039;BME280;4062;49.844;8.120;2023-02-13T08:26:01;101373.56;;;14.15;53.54
8039;BME280;4062;49.844;8.120;2023-02-13T08:28:02;101377.97;;;14.14;53.57
8039;BME280;4062;49.844;8.120;2023-02-13T08:30:04;101370.91;;;14.15;53.47
8039;BME280;4062;49.844;8.120;2023-02-13T08:32:06;101374.44;;;14.15;53.51
8039;BME280;4062;49.844;8.120;2023-02-13T08:34:07;101375.31;;;14.17;53.48
8039;BME280;4062;49.844;8.120;2023-02-13T08:36:08;101373.53;;;14.18;53.48
8039;BME280;4062;49.844;8.120;2023-02-13T08:38:09;101373.53;;;14.19;53.44
8039;BME280;4062;49.844;8.120;2023-02-13T08:40:10;101374.38;;;14.23;53.29
8039;BME280;4062;49.844;8.120;2023-02-13T08:42:11;101377.88;;;14.27;53.54
8039;BME280;4062;49.844;8.120;2023-02-13T08:44:12;101375.22;;;14.28;53.37
8039;BME280;4062;49.844;8.120;2023-02-13T08:46:13;101373.44;;;14.30;53.43
8039;BME280;4062;49.844;8.120;2023-02-13T08:48:15;101368.09;;;14.32;53.61
8039;BME280;4062;49.844;8.120;2023-02-13T08:50:16;101366.31;;;14.32;53.52
8039;BME280;4062;49.844;8.120;2023-02-13T08:52:16;101368.09;;;14.33;53.51
8039;BME280;4062;49.844;8.120;2023-02-13T08:54:17;101370.72;;;14.35;53.41
8039;BME280;4062;49.844;8.120;2023-02-13T08:56:18;101372.50;;;14.36;53.56
8039;BME280;4062;49.844;8.120;2023-02-13T08:58:19;101371.63;;;14.35;53.74
8039;BME280;4062;49.844;8.120;2023-02-13T09:00:20;101368.97;;;14.35;53.34
8039;BME280;4062;49.844;8.120;2023-02-13T09:02:21;101375.16;;;14.36;53.52
8039;BME280;4062;49.844;8.120;2023-02-13T09:04:22;101365.41;;;14.36;53.53
8039;BME280;4062;49.844;8.120;2023-02-13T09:06:24;101367.19;;;14.36;53.58
8039;BME280;4062;49.844;8.120;2023-02-13T09:08:29;101372.50;;;14.36;53.47
8039;BME280;4062;49.844;8.120;2023-02-13T09:10:31;101371.63;;;14.35;53.39
8039;BME280;4062;49.844;8.120;2023-02-13T09:12:32;101367.22;;;14.34;53.53
8039;BME280;4062;49.844;8.120;2023-02-13T09:14:33;101373.41;;;14.33;53.30
8039;BME280;4062;49.844;8.120;2023-02-13T09:16:34;101371.66;;;14.32;53.50
8039;BME280;4062;49.844;8.120;2023-02-13T09:18:35;101369.00;;;14.32;53.15
8039;BME280;4062;49.844;8.120;2023-02-13T09:20:36;101376.06;;;14.32;53.36
8039;BME280;4062;49.844;8.120;2023-02-13T09:22:37;101378.75;;;14.30;53.36
8039;BME280;4062;49.844;8.120;2023-02-13T09:24:37;101378.78;;;14.29;53.48
8039;BME280;4062;49.844;8.120;2023-02-13T09:26:38;101377.00;;;14.28;53.21
8039;BME280;4062;49.844;8.120;2023-02-13T09:28:40;101385.88;;;14.27;53.29
8039;BME280;4062;49.844;8.120;2023-02-13T09:30:41;101379.69;;;14.26;53.38
8039;BME280;4062;49.844;8.120;2023-02-13T09:32:42;101377.03;;;14.26;53.35
8039;BME280;4062;49.844;8.120;2023-02-13T09:34:42;101379.69;;;14.26;53.34
8039;BME280;4062;49.844;8.120;2023-02-13T09:36:43;101379.69;;;14.25;53.37
8039;BME280;4062;49.844;8.120;2023-02-13T09:38:47;101383.22;;;14.23;53.43
8039;BME280;4062;49.844;8.120;2023-02-13T09:40:55;101377.03;;;14.23;53.37
8039;BME280;4062;49.844;8.120;2023-02-13T09:45:34;101379.69;;;14.23;53.28
8039;BME280;4062;49.844;8.120;2023-02-13T09:47:42;101378.81;;;14.21;53.30
8039;BME280;4062;49.844;8.120;2023-02-13T09:50:05;101377.06;;;14.20;53.46
8039;BME280;4062;49.844;8.120;2023-02-13T09:52:08;101389.44;;;14.21;53.44
8039;BME280;4062;49.844;8.120;2023-02-13T09:54:15;101385.03;;;14.20;53.48
8039;BME280;4062;49.844;8.120;2023-02-13T09:56:50;101382.38;;;14.18;53.34
8039;BME280;4062;49.844;8.120;2023-02-13T10:01:38;101385.06;;;14.17;53.25
8039;BME280;4062;49.844;8.120;2023-02-13T10:03:47;101396.56;;;14.17;53.33
8039;BME280;4062;49.844;8.120;2023-02-13T10:06:05;101391.28;;;14.16;53.43
8039;BME280;4062;49.844;8.120;2023-02-13T10:08:40;101396.59;;;14.16;53.42
8039;BME280;4062;49.844;8.120;2023-02-13T10:11:02;101392.16;;;14.15;53.51
8039;BME280;4062;49.844;8.120;2023-02-13T10:13:54;101394.81;;;14.15;53.54
8039;BME280;4062;49.844;8.120;2023-02-13T10:16:18;101393.06;;;14.14;53.54
8039;BME280;4062;49.844;8.120;2023-02-13T10:18:28;101388.63;;;14.13;53.56
8039;BME280;4062;49.844;8.120;2023-02-13T10:20:46;101391.28;;;14.13;53.58
8039;BME280;4062;49.844;8.120;2023-02-13T10:22:58;101392.19;;;14.13;53.44
8039;BME280;4062;49.844;8.120;2023-02-13T10:25:07;101386.84;;;14.12;53.62
8039;BME280;4062;49.844;8.120;2023-02-13T10:30:06;101390.41;;;14.12;53.64
8039;BME280;4062;49.844;8.120;2023-02-13T10:32:14;101385.09;;;14.14;53.49
8039;BME280;4062;49.844;8.120;2023-02-13T10:34:22;101393.03;;;14.15;53.35
8039;BME280;4062;49.844;8.120;2023-02-13T10:36:32;101387.72;;;14.17;53.35
8039;BME280;4062;49.844;8.120;2023-02-13T10:38:42;101385.91;;;14.19;53.39
8039;BME280;4062;49.844;8.120;2023-02-13T10:43:27;101382.34;;;14.23;53.49
8039;BME280;4062;49.844;8.120;2023-02-13T10:45:54;101377.03;;;14.26;53.45
8039;BME280;4062;49.844;8.120;2023-02-13T10:53:10;101363.69;;;14.31;53.43
8039;BME280;4062;49.844;8.120;2023-02-13T10:55:48;101360.13;;;14.32;53.48
8039;BME280;4062;49.844;8.120;2023-02-13T11:00:36;101354.78;;;14.32;53.49
8039;BME280;4062;49.844;8.120;2023-02-13T11:02:38;101353.94;;;14.31;53.63
8039;BME280;4062;49.844;8.120;2023-02-13T11:04:43;101345.94;;;14.31;53.37
8039;BME280;4062;49.844;8.120;2023-02-13T11:07:02;101349.50;;;14.30;53.40
8039;BME280;4062;49.844;8.120;2023-02-13T11:09:05;101349.50;;;14.30;53.44
8039;BME280;4062;49.844;8.120;2023-02-13T11:11:36;101345.97;;;14.28;53.39
8039;BME280;4062;49.844;8.120;2023-02-13T11:13:38;101338.00;;;14.27;53.45
8039;BME280;4062;49.844;8.120;2023-02-13T11:15:40;101338.91;;;14.26;53.56
8039;BME280;4062;49.844;8.120;2023-02-13T11:17:41;101343.31;;;14.27;53.36
8039;BME280;4062;49.844;8.120;2023-02-13T11:19:53;101344.22;;;14.26;53.29
8039;BME280;4062;49.844;8.120;2023-02-13T11:22:03;101340.69;;;14.23;53.36
8039;BME280;4062;49.844;8.120;2023-02-13T11:24:04;101346.91;;;14.24;53.40
8039;BME280;4062;49.844;8.120;2023-02-13T11:26:33;101343.34;;;14.25;53.46
8039;BME280;4062;49.844;8.120;2023-02-13T11:28:43;101347.78;;;14.23;53.36
8039;BME280;4062;49.844;8.120;2023-02-13T11:30:46;101343.38;;;14.22;53.57
8039;BME280;4062;49.844;8.120;2023-02-13T11:33:06;101339.84;;;14.21;53.50
8039;BME280;4062;49.844;8.120;2023-02-13T11:35:32;101346.91;;;14.21;53.45
8039;BME280;4062;49.844;8.120;2023-02-13T11:37:34;101343.38;;;14.20;53.49
8039;BME280;4062;49.844;8.120;2023-02-13T11:39:34;101346.91;;;14.21;53.38
8039;BME280;4062;49.844;8.120;2023-02-13T11:41:42;101346.03;;;14.19;53.43
8039;BME280;4062;49.844;8.120;2023-02-13T11:43:55;101337.19;;;14.18;53.44
8039;BME280;4062;49.844;8.120;2023-02-13T11:48:20;101343.41;;;14.17;53.36
8039;BME280;4062;49.844;8.120;2023-02-13T11:50:31;101338.97;;;14.16;53.39
8039;BME280;4062;49.844;8.120;2023-02-13T11:52:35;101344.28;;;14.16;53.34
8039;BME280;4062;49.844;8.120;2023-02-13T11:54:42;101341.63;;;14.16;53.38
8039;BME280;4062;49.844;8.120;2023-02-13T11:56:49;101338.09;;;14.14;53.40
8039;BME280;4062;49.844;8.120;2023-02-13T11:59:00;101339.00;;;14.15;53.38
8039;BME280;4062;49.844;8.120;2023-02-13T12:03:29;101334.56;;;14.14;53.39
8039;BME280;4062;49.844;8.120;2023-02-13T12:05:30;101332.81;;;14.13;53.51
8039;BME280;4062;49.844;8.120;2023-02-13T12:07:32;101337.25;;;14.12;53.62
8039;BME280;4062;49.844;8.120;2023-02-13T12:09:33;101333.69;;;14.12;53.52
8039;BME280;4062;49.844;8.120;2023-02-13T12:11:46;101327.50;;;14.11;53.69
8039;BME280;4062;49.844;8.120;2023-02-13T12:13:49;101323.94;;;14.11;53.58
8039;BME280;4062;49.844;8.120;2023-02-13T12:15:59;101321.28;;;14.11;53.56